Snowmass, CO (81654)

10:54 AM MDT on April 18, 2015 (GMT -0600)
Capitol Creek Valley | | Change Station
CLOSE
Current Station
Personal Weather Station
Location: Snowmass, CO
Elevation: 7441 ft
Nearby Weather Stations

Elev 7441 ft 39.29 °N, 107.01 °W | Updated 17 seconds ago

Snow
Snow
30.9 °F
Feels Like 31 °F
N
0.0
Wind Variable Wind from North
Gusts 0.0 mph

Today
High -- | Low -- °F
--% Chance of Precip.
Yesterday
High -- | Low -- °F
Precip. -- in
6:26 AM 7:48 PM
Waning Crescent, 0% visible
Pressure 29.97 in
Visibility 1.0 miles
Clouds
Windchill 31 °F
Dew Point 26 °F
Humidity 80%
Rainfall 0.00 in
Snow Depth Not available.
UV Not available.
Pollen 3.80 out of 12
Air Quality Not available.
Flu Activity Local Activity
METAR KASE 181553Z 17003KT 1SM -SN BR VV013 M03/M04 A2998 RMK AO2 SLP148 P0004 T10281039

More Conditions Fewer Conditions

Pressure 29.97 in
Visibility 1.0 miles
Clouds
Windchill 31 °F
Dew Point 26 °F
Humidity 80%
Rainfall 0.00 in
Snow Depth Not available.
UV Not available.
Pollen 3.80 out of 12
Air Quality Not available.
Flu Activity Local Activity
METAR KASE 181553Z 17003KT 1SM -SN BR VV013 M03/M04 A2998 RMK AO2 SLP148 P0004 T10281039

More Conditions Fewer Conditions

10-Day Weather Forecast

Almanac

Astronomy

Apr. 18, 2015 Rise Set
Actual Time
Civil Twilight
Nautical Twilight
Astronomical Twilight
Moon
Length of Visible Light
Length of Day
Tomorrow will be .
, % of the Moon is Illuminated

Today's Extremes

State Highs State Lows

Community

WunderPhotos

Upload Photos

1,814,457 photos uploaded!

WunderBlogs® & News

Nearby

Air Quality

  Air Quality AQ Index Pollutant
Not available.

Snow Depth

Station Depth Elevation

Earthquake Activity

City Distance Mag. Time & Date
Minimum magnitude displayed is 2.5.

Coastal Water Temperatures

Place Temperature

Stations

Nearby Weather Stations

Station Location Temp. Windchill Dew Point Humidity Wind Precip. Elev Updated Type
                   
Winter Storm Warning
Statement as of 5:52 AM MDT on April 18, 2015

... Winter Storm Warning remains in effect until midnight MDT
tonight...

* locations include the cities of... Aspen... Vail... Snowmass...
Crested Butte... Taylor Park... Marble.

* Timing... periods of snow... locally heavy at times... through
tonight.

* Snow accumulation... an additional 2 to 4 inches... bringing
totals of up 10 to 20 inches. Local amounts in excess of 2
feet.

* Winds... north 10 to 20 mph with gusts up to 30 mph.

* Visibility... less than one mile at times in heavy snow.

* Impacts... roads will be slick with slush or snow over mountain
passes. Backcountry travel will be difficult.

Precautionary/preparedness actions...

A Winter Storm Warning means significant amounts of snow are
expected or occurring. Strong winds and blowing snow are also
possible. This will make travel very hazardous or impossible.